Time;durP1;ratioP1;P1;durP2;ratioP2;P2;SDS_P1;SDS_P2;PMS_P1;PMS_P2;Temp;Humidity;BMP_temperature;BMP_pressure;BME280_temperature;BME280_humidity;BME280_pressure;Samples;Min_cycle;Max_cycle;Signal;HPM_P1;HPM_P2
2023/12/06 05:54:04;;;;;;;;;;;;;;;7.26;67.63;96715.81;4209872;28;10403;-77
2023/12/06 05:56:09;;;;;;;;;;;;;;;7.57;66.83;96719.19;4207577;28;5724;-77
2023/12/06 05:58:14;;;;;;;;;;;;;;;7.81;66.54;96709.47;4210609;28;5723;-78
2023/12/06 06:00:18;;;;;;;;;;;;;;;7.97;66.00;96714.59;4216632;28;5695;-78
2023/12/06 06:02:21;;;;;;;;;;;;;;;8.11;65.37;96710.34;4207914;28;5114;-78
2023/12/06 06:04:24;;;;;;;;;;;;;;;8.23;64.99;96716.00;4205961;28;5824;-77
2023/12/06 06:06:28;;;;;;;;;;;;;;;8.34;64.99;96710.28;4204988;28;5099;-76
2023/12/06 06:08:31;;;;;;;;;;;;;;;8.43;64.28;96711.84;4199017;28;5889;-76
2023/12/06 06:10:35;;;;;;;;;;;;;;;8.50;64.43;96712.78;4201407;28;5697;-76
2023/12/06 06:12:38;;;;;;;;;;;;;;;8.53;63.84;96715.03;4210282;28;5763;-76
2023/12/06 06:14:41;;;;;;;;;;;;;;;8.59;63.92;96719.56;4198628;28;6076;-75
2023/12/06 06:16:44;;;;;;;;;;;;;;;8.64;63.68;96711.94;4207049;28;5371;-79
2023/12/06 06:18:46;;;;;;;;;;;;;;;8.68;63.49;96718.47;4205722;28;7146;-78
2023/12/06 06:20:49;;;;;;;;;;;;;;;8.72;63.34;96725.03;4208064;28;5943;-79
2023/12/06 06:22:52;;;;;;;;;;;;;;;8.75;63.19;96729.13;4210383;28;5710;-79
2023/12/06 06:24:55;;;;;;;;;;;;;;;8.78;62.94;96718.19;4214228;28;5707;-78
2023/12/06 06:26:59;;;;;;;;;;;;;;;8.82;62.96;96719.47;4203479;28;5705;-78
2023/12/06 06:29:02;;;;;;;;;;;;;;;8.85;63.11;96718.31;4198478;28;5740;-80
2023/12/06 06:31:05;;;;;;;;;;;;;;;8.88;62.60;96717.91;4212200;28;5811;-78
2023/12/06 06:33:08;;;;;;;;;;;;;;;8.88;62.29;96708.19;4207799;28;6500;-78
2023/12/06 06:35:11;;;;;;;;;;;;;;;8.88;62.30;96717.91;4212143;28;6396;-78
2023/12/06 06:37:13;;;;;;;;;;;;;;;8.90;62.48;96705.38;4211422;28;5687;-79
2023/12/06 06:39:16;;;;;;;;;;;;;;;8.91;62.03;96699.91;4203676;28;5691;-67
2023/12/06 06:41:19;;;;;;;;;;;;;;;8.90;61.66;96705.38;4199297;28;5759;-65
2023/12/06 06:43:26;;;;;;;;;;;;;;;8.90;61.95;96700.09;4208633;28;5687;-65
2023/12/06 06:45:29;;;;;;;;;;;;;;;8.88;61.52;96697.66;4200621;28;5776;-64
2023/12/06 06:47:30;;;;;;;;;;;;;;;8.90;61.64;96700.09;4210232;28;5698;-64
2023/12/06 06:49:34;;;;;;;;;;;;;;;8.92;61.20;96698.09;4209519;28;5716;-65
2023/12/06 06:51:37;;;;;;;;;;;;;;;8.91;61.45;96701.72;4210879;28;5691;-66
2023/12/06 06:53:41;;;;;;;;;;;;;;;8.91;61.22;96702.53;4210165;28;5698;-65
2023/12/06 06:55:44;;;;;;;;;;;;;;;8.92;61.25;96706.00;4197696;28;5950;-65
2023/12/06 06:57:47;;;;;;;;;;;;;;;8.93;61.29;96703.16;4201797;28;5137;-64
2023/12/06 06:59:51;;;;;;;;;;;;;;;8.96;60.74;96707.28;4186021;28;7821;-64
2023/12/06 07:01:55;;;;;;;;;;;;;;;8.97;61.00;96715.00;4193574;28;5704;-65
2023/12/06 07:03:58;;;;;;;;;;;;;;;8.98;60.92;96714.00;4202704;28;5699;-65
2023/12/06 07:06:02;;;;;;;;;;;;;;;8.98;60.62;96721.91;4194346;28;5684;-65
2023/12/06 07:08:05;;;;;;;;;;;;;;;8.94;60.38;96722.44;4202883;28;5724;-64
2023/12/06 07:10:09;;;;;;;;;;;;;;;8.93;60.51;96728.72;4194380;28;5737;-64
2023/12/06 07:12:13;;;;;;;;;;;;;;;8.93;60.29;96719.00;4200964;28;5762;-64
2023/12/06 07:14:15;;;;;;;;;;;;;;;8.92;60.47;96719.19;4187675;28;5799;-64
2023/12/06 07:16:20;;;;;;;;;;;;;;;8.92;60.69;96717.34;4201393;28;5711;-65
2023/12/06 07:18:27;;;;;;;;;;;;;;;8.93;60.38;96720.81;4202974;28;5714;-65
2023/12/06 07:20:31;;;;;;;;;;;;;;;8.89;60.40;96725.66;4202140;28;5931;-66
2023/12/06 07:22:45;;;;;;;;;;;;;;;8.86;60.19;96728.66;4196346;28;5821;-65
2023/12/06 07:24:48;;;;;;;;;;;;;;;8.87;60.42;96737.38;4186409;28;5892;-66
2023/12/06 07:26:51;;;;;;;;;;;;;;;8.88;60.13;96731.09;4201336;28;5156;-65
2023/12/06 07:28:54;;;;;;;;;;;;;;;8.86;60.17;96744.47;4194857;28;5727;-66
2023/12/06 07:30:57;;;;;;;;;;;;;;;8.86;60.07;96747.09;4186106;28;5713;-65
2023/12/06 07:33:01;;;;;;;;;;;;;;;8.87;60.00;96745.28;4202468;28;5849;-65
2023/12/06 07:35:05;;;;;;;;;;;;;;;8.85;59.98;96745.47;4200952;28;5690;-65
2023/12/06 07:37:08;;;;;;;;;;;;;;;8.82;60.05;96745.00;4198878;28;5748;-65
2023/12/06 07:39:14;;;;;;;;;;;;;;;8.77;60.04;96755.28;4200430;28;6375;-65
2023/12/06 07:41:17;;;;;;;;;;;;;;;8.74;59.71;96751.22;4198476;28;5854;-65
2023/12/06 07:43:19;;;;;;;;;;;;;;;8.69;59.57;96749.09;4189943;28;5922;-65
2023/12/06 07:45:22;;;;;;;;;;;;;;;8.68;59.67;96758.00;4189241;28;5720;-65
2023/12/06 07:47:26;;;;;;;;;;;;;;;8.68;59.44;96744.84;4199198;28;5686;-66
2023/12/06 07:49:31;;;;;;;;;;;;;;;8.67;59.73;96751.09;4195500;28;5965;-65
2023/12/06 07:51:36;;;;;;;;;;;;;;;8.68;59.49;96751.94;4195443;28;5092;-66
2023/12/06 07:53:39;;;;;;;;;;;;;;;8.71;59.50;96759.47;4199473;28;5723;-66
2023/12/06 07:55:42;;;;;;;;;;;;;;;8.73;59.43;96758.31;4190657;28;6604;-66
2023/12/06 07:57:45;;;;;;;;;;;;;;;8.73;59.58;96760.94;4184903;28;5704;-66
2023/12/06 07:59:48;;;;;;;;;;;;;;;8.71;59.48;96765.53;4190854;28;5885;-66
2023/12/06 08:01:50;;;;;;;;;;;;;;;8.71;59.41;96765.53;4194703;28;5875;-66
2023/12/06 08:03:53;;;;;;;;;;;;;;;8.72;59.16;96766.38;4193076;28;5748;-66
2023/12/06 08:05:59;;;;;;;;;;;;;;;8.71;59.17;96768.19;4195126;28;5718;-66
2023/12/06 08:08:02;;;;;;;;;;;;;;;8.72;59.50;96759.31;4193317;28;5763;-66
2023/12/06 08:10:09;;;;;;;;;;;;;;;8.75;59.29;96766.84;4199669;28;5894;-66
2023/12/06 08:12:11;;;;;;;;;;;;;;;8.77;59.44;96768.47;4190947;28;5818;-66
2023/12/06 08:14:15;;;;;;;;;;;;;;;8.81;59.09;96775.00;4191482;28;5784;-66
2023/12/06 08:16:18;;;;;;;;;;;;;;;8.82;59.10;96771.38;4187397;28;5708;-66
2023/12/06 08:18:21;;;;;;;;;;;;;;;8.83;59.10;96776.44;4199159;28;5866;-65
2023/12/06 08:20:23;;;;;;;;;;;;;;;8.86;59.38;96772.66;4192697;28;5687;-66
2023/12/06 08:22:27;;;;;;;;;;;;;;;8.89;58.93;96767.81;4192723;28;5687;-68
2023/12/06 08:24:30;;;;;;;;;;;;;;;8.89;59.09;96778.38;4191881;28;5754;-66
2023/12/06 08:26:33;;;;;;;;;;;;;;;8.92;58.93;96774.53;4196326;28;5844;-72
2023/12/06 08:28:37;;;;;;;;;;;;;;;8.92;59.00;96774.53;4186416;28;5896;-71
2023/12/06 08:30:40;;;;;;;;;;;;;;;8.96;58.99;96778.47;4196426;28;5833;-67
2023/12/06 08:32:42;;;;;;;;;;;;;;;9.00;58.84;96782.38;4187202;28;5728;-70
2023/12/06 08:34:45;;;;;;;;;;;;;;;9.01;58.73;96776.91;4194907;28;5707;-63
2023/12/06 08:36:48;;;;;;;;;;;;;;;9.05;58.89;96783.44;4184798;28;6595;-67
2023/12/06 08:38:52;;;;;;;;;;;;;;;9.08;58.74;96777.00;4187777;28;5783;-67
2023/12/06 08:40:55;;;;;;;;;;;;;;;9.06;58.91;96779.00;4195656;28;5789;-74
2023/12/06 08:43:00;;;;;;;;;;;;;;;9.09;58.57;96786.53;4190724;28;6630;-71
2023/12/06 08:45:03;;;;;;;;;;;;;;;9.11;58.78;96781.91;4198092;28;5663;-74
2023/12/06 08:47:06;;;;;;;;;;;;;;;9.15;58.57;96782.34;4195179;28;5715;-74
2023/12/06 08:49:09;;;;;;;;;;;;;;;9.16;58.45;96782.16;4196388;28;5699;-70
2023/12/06 08:51:12;;;;;;;;;;;;;;;9.20;58.52;96787.91;4194058;28;5708;-72
2023/12/06 08:53:15;;;;;;;;;;;;;;;9.21;58.84;96787.72;4191320;28;5736;-70
2023/12/06 08:55:19;;;;;;;;;;;;;;;9.23;58.81;96790.16;4198568;28;6376;-75
2023/12/06 08:57:21;;;;;;;;;;;;;;;9.25;58.63;96788.16;4200969;28;5683;-74
2023/12/06 08:59:24;;;;;;;;;;;;;;;9.26;58.25;96790.59;4201742;28;6405;-74
2023/12/06 09:01:27;;;;;;;;;;;;;;;9.27;58.38;96797.50;4197544;28;6474;-74
2023/12/06 09:03:31;;;;;;;;;;;;;;;9.27;58.60;96792.22;4189979;28;5813;-73
2023/12/06 09:05:34;;;;;;;;;;;;;;;9.29;58.35;96792.88;4195383;28;5687;-70
2023/12/06 09:07:37;;;;;;;;;;;;;;;9.29;58.86;96790.25;4200191;28;5803;-70
2023/12/06 09:09:41;;;;;;;;;;;;;;;9.32;58.75;96799.59;4196738;28;5782;-70
2023/12/06 09:11:46;;;;;;;;;;;;;;;9.29;58.50;96800.81;4194006;28;5826;-70
2023/12/06 09:13:52;;;;;;;;;;;;;;;9.31;58.62;96797.97;4183871;28;5744;-70
2023/12/06 09:15:55;;;;;;;;;;;;;;;9.36;58.49;96795.59;4184271;28;5819;-69
2023/12/06 09:17:58;;;;;;;;;;;;;;;9.38;58.94;96788.28;4191873;28;5691;-70
2023/12/06 09:20:01;;;;;;;;;;;;;;;9.41;58.65;96793.22;4191490;28;5720;-70
2023/12/06 09:22:05;;;;;;;;;;;;;;;9.41;58.54;96789.78;4193436;28;5082;-70
2023/12/06 09:24:09;;;;;;;;;;;;;;;9.42;58.60;96799.31;4197806;28;7714;-70
2023/12/06 09:26:13;;;;;;;;;;;;;;;9.45;58.82;96799.75;4200427;28;5814;-70
2023/12/06 09:28:17;;;;;;;;;;;;;;;9.47;58.89;96796.94;4192467;28;5990;-70
2023/12/06 09:30:20;;;;;;;;;;;;;;;9.48;58.75;96793.28;4197719;28;6639;-70
2023/12/06 09:32:23;;;;;;;;;;;;;;;9.48;58.76;96802.00;4192015;28;5691;-70
2023/12/06 09:34:27;;;;;;;;;;;;;;;9.49;58.42;96802.84;4200655;28;5683;-70
2023/12/06 09:36:41;;;;;;;;;;;;;;;9.51;58.53;96798.19;4192433;28;5701;-70
2023/12/06 09:38:44;;;;;;;;;;;;;;;9.49;58.46;96801.00;4194744;28;5712;-70
2023/12/06 09:40:48;;;;;;;;;;;;;;;9.48;58.30;96798.56;4198912;28;5690;-69
2023/12/06 09:42:56;;;;;;;;;;;;;;;9.47;58.33;96808.31;4191994;28;5714;-75
2023/12/06 09:45:01;;;;;;;;;;;;;;;9.41;58.09;96810.88;4191852;28;5845;-74
2023/12/06 09:47:04;;;;;;;;;;;;;;;9.37;58.03;96812.22;4197473;28;5711;-75
2023/12/06 09:49:08;;;;;;;;;;;;;;;9.32;57.95;96816.25;4194182;28;5683;-75
2023/12/06 09:51:11;;;;;;;;;;;;;;;9.30;57.84;96815.63;4184138;28;5700;-69
2023/12/06 09:53:13;;;;;;;;;;;;;;;9.30;57.75;96812.16;4184691;28;5958;-77
2023/12/06 09:55:19;;;;;;;;;;;;;;;9.34;57.89;96808.97;4186992;28;5849;-77
2023/12/06 09:57:22;;;;;;;;;;;;;;;9.37;57.83;96812.22;4200611;28;5686;-77
2023/12/06 09:59:26;;;;;;;;;;;;;;;9.36;57.81;96813.25;4199847;28;6613;-78
2023/12/06 10:01:30;;;;;;;;;;;;;;;9.35;57.73;96809.78;4192361;28;5724;-77
2023/12/06 10:03:33;;;;;;;;;;;;;;;9.35;57.76;96809.78;4194232;28;5802;-77
2023/12/06 10:05:36;;;;;;;;;;;;;;;9.36;58.19;96810.59;4194899;28;5736;-77
2023/12/06 10:07:39;;;;;;;;;;;;;;;9.36;57.72;96816.69;4189078;28;5703;-76
2023/12/06 10:09:49;;;;;;;;;;;;;;;9.38;58.06;96814.69;4201384;28;6377;-76
2023/12/06 10:11:53;;;;;;;;;;;;;;;9.39;57.77;96811.03;4194211;28;5842;-77
2023/12/06 10:13:56;;;;;;;;;;;;;;;9.41;57.98;96816.97;4200195;28;5789;-76
2023/12/06 10:15:59;;;;;;;;;;;;;;;9.42;57.80;96810.69;4200509;28;5691;-76
2023/12/06 10:18:04;;;;;;;;;;;;;;;9.46;57.52;96811.13;4192434;28;5695;-76
2023/12/06 10:20:08;;;;;;;;;;;;;;;9.49;57.71;96816.03;4184829;28;5909;-76
2023/12/06 10:22:11;;;;;;;;;;;;;;;9.50;57.45;96807.09;4186108;28;5832;-77
2023/12/06 10:24:14;;;;;;;;;;;;;;;9.52;57.71;96810.41;4191749;28;5811;-76
2023/12/06 10:26:16;;;;;;;;;;;;;;;9.54;57.42;96808.38;4201103;28;5687;-77
2023/12/06 10:28:19;;;;;;;;;;;;;;;9.58;57.77;96812.28;4201090;28;5691;-77
2023/12/06 10:30:22;;;;;;;;;;;;;;;9.62;57.61;96811.72;4203482;28;5694;-76
2023/12/06 10:32:25;;;;;;;;;;;;;;;9.64;57.79;96814.19;4192594;28;5709;-76
2023/12/06 10:34:32;;;;;;;;;;;;;;;9.68;57.65;96812.81;4199919;28;6413;-77
2023/12/06 10:36:36;;;;;;;;;;;;;;;9.70;57.14;96807.31;4199197;28;5736;-76
2023/12/06 10:38:41;;;;;;;;;;;;;;;9.71;57.30;96806.31;4203372;28;5711;-76
2023/12/06 10:40:44;;;;;;;;;;;;;;;9.72;57.50;96805.31;4202401;28;5690;-76
2023/12/06 10:42:52;;;;;;;;;;;;;;;9.71;56.99;96807.13;4200272;28;5394;-76
2023/12/06 10:44:57;;;;;;;;;;;;;;;9.71;57.24;96806.31;4195041;28;7409;-76
2023/12/06 10:47:00;;;;;;;;;;;;;;;9.73;56.96;96806.94;4200819;28;5693;-76
2023/12/06 10:49:13;;;;;;;;;;;;;;;9.73;56.78;96797.19;4194710;28;5763;-76
2023/12/06 10:51:18;;;;;;;;;;;;;;;9.76;56.77;96801.31;4193471;28;5728;-76
2023/12/06 10:53:22;;;;;;;;;;;;;;;9.76;57.02;96796.84;4190135;28;5710;-72
2023/12/06 10:55:29;;;;;;;;;;;;;;;9.74;56.86;96793.59;4198898;28;5736;-72
2023/12/06 10:57:33;;;;;;;;;;;;;;;9.76;56.59;96802.13;4191441;28;5724;-72
2023/12/06 10:59:37;;;;;;;;;;;;;;;9.78;56.46;96796.66;4197255;28;5138;-72
2023/12/06 11:01:40;;;;;;;;;;;;;;;9.78;56.61;96800.13;4198071;28;5854;-72
2023/12/06 11:03:44;;;;;;;;;;;;;;;9.80;56.75;96787.53;4199782;28;5750;-72
2023/12/06 11:05:52;;;;;;;;;;;;;;;9.81;56.68;96789.16;4198968;28;5815;-72
2023/12/06 11:08:15;;;;;;;;;;;;;;;9.81;56.31;96788.34;4200598;28;5762;-72
2023/12/06 11:10:28;;;;;;;;;;;;;;;9.80;56.53;96784.91;4201724;28;5687;-71
2023/12/06 11:12:49;;;;;;;;;;;;;;;9.82;56.38;96785.53;4199644;28;5687;-71
2023/12/06 11:15:09;;;;;;;;;;;;;;;9.83;56.28;96781.88;4200684;28;5830;-72
2023/12/06 11:17:27;;;;;;;;;;;;;;;9.86;56.04;96778.88;4199488;28;5706;-71
2023/12/06 11:19:30;;;;;;;;;;;;;;;9.85;56.05;96776.41;4191637;28;5839;-72
2023/12/06 11:21:33;;;;;;;;;;;;;;;9.85;56.28;96773.75;4201464;28;5805;-72
2023/12/06 11:23:37;;;;;;;;;;;;;;;9.84;56.11;96772.13;4197642;28;5712;-72
2023/12/06 11:25:42;;;;;;;;;;;;;;;9.83;56.05;96766.03;4200913;28;5774;-72
2023/12/06 11:27:45;;;;;;;;;;;;;;;9.82;55.93;96764.41;4195752;28;5914;-72
2023/12/06 11:29:49;;;;;;;;;;;;;;;9.83;56.01;96771.31;4194731;28;5837;-72
2023/12/06 11:31:57;;;;;;;;;;;;;;;9.85;55.78;96776.41;4197477;28;5762;-73
2023/12/06 11:34:03;;;;;;;;;;;;;;;9.82;55.57;96764.41;4201283;28;5703;-72
2023/12/06 11:36:16;;;;;;;;;;;;;;;9.83;55.70;96771.31;4197293;28;5146;-72
2023/12/06 11:38:19;;;;;;;;;;;;;;;9.82;55.82;96761.75;4199724;28;7086;-72
2023/12/06 11:40:26;;;;;;;;;;;;;;;9.83;55.34;96763.38;4200191;28;5804;-72
2023/12/06 11:42:29;;;;;;;;;;;;;;;9.85;55.49;96768.47;4200106;28;5765;-72
2023/12/06 11:44:32;;;;;;;;;;;;;;;9.86;55.57;96770.97;4200067;28;5707;-72
2023/12/06 11:46:36;;;;;;;;;;;;;;;9.85;55.47;96766.69;4201955;28;6444;-72
2023/12/06 11:48:41;;;;;;;;;;;;;;;9.88;55.45;96774.22;4195657;28;5706;-72
2023/12/06 11:50:46;;;;;;;;;;;;;;;9.90;55.66;96766.91;4200937;28;5900;-72
2023/12/06 11:52:48;;;;;;;;;;;;;;;9.90;55.53;96766.09;4198229;28;5683;-72
2023/12/06 11:54:52;;;;;;;;;;;;;;;9.90;55.46;96766.91;4202043;28;5687;-74
2023/12/06 11:57:07;;;;;;;;;;;;;;;9.92;55.31;96767.53;4201952;28;5698;-72
2023/12/06 11:59:11;;;;;;;;;;;;;;;9.92;55.00;96764.91;4195926;28;5712;-71
2023/12/06 12:01:15;;;;;;;;;;;;;;;9.90;55.09;96761.63;4188202;28;5815;-71
2023/12/06 12:03:19;;;;;;;;;;;;;;;9.87;55.11;96767.31;4195885;28;5831;-72
2023/12/06 12:05:21;;;;;;;;;;;;;;;9.84;55.03;96757.09;4189496;28;5814;-71
2023/12/06 12:07:24;;;;;;;;;;;;;;;9.82;54.97;96769.69;4195285;28;5808;-72
2023/12/06 12:09:29;;;;;;;;;;;;;;;9.83;54.97;96755.47;4193354;28;5714;-72
2023/12/06 12:11:34;;;;;;;;;;;;;;;9.81;54.91;96759.31;4184956;28;5709;-72
2023/12/06 12:13:39;;;;;;;;;;;;;;;9.80;55.07;96761.13;4189472;28;5850;-72
2023/12/06 12:15:50;;;;;;;;;;;;;;;9.79;55.15;96758.69;4184674;28;5728;-72
2023/12/06 12:17:54;;;;;;;;;;;;;;;9.79;54.96;96754.22;4192978;28;5824;-72
2023/12/06 12:19:56;;;;;;;;;;;;;;;9.78;55.10;96751.78;4200437;28;5703;-72
2023/12/06 12:22:03;;;;;;;;;;;;;;;9.77;54.90;96750.16;4193156;28;5751;-72
2023/12/06 12:24:07;;;;;;;;;;;;;;;9.78;54.79;96767.63;4192754;28;5771;-72
2023/12/06 12:26:14;;;;;;;;;;;;;;;9.76;54.72;96757.25;4193387;28;5687;-72
2023/12/06 12:28:17;;;;;;;;;;;;;;;9.76;54.94;96764.34;4190934;28;5781;-72
2023/12/06 12:30:22;;;;;;;;;;;;;;;9.78;54.63;96762.34;4189870;28;5937;-72
2023/12/06 12:32:24;;;;;;;;;;;;;;;9.77;54.63;96755.44;4197566;28;5795;-72
2023/12/06 12:34:29;;;;;;;;;;;;;;;9.76;54.67;96765.16;4189823;28;5712;-72
2023/12/06 12:36:32;;;;;;;;;;;;;;;9.77;54.63;96766.00;4188925;28;5716;-72
2023/12/06 12:38:34;;;;;;;;;;;;;;;9.78;54.95;96762.34;4187280;28;5732;-73
2023/12/06 12:40:41;;;;;;;;;;;;;;;9.76;54.84;96765.16;4194707;28;5858;-72
2023/12/06 12:42:45;;;;;;;;;;;;;;;9.75;54.65;96755.63;4191244;28;5737;-72
2023/12/06 12:44:47;;;;;;;;;;;;;;;9.77;54.62;96756.25;4189576;28;5727;-71
2023/12/06 12:46:52;;;;;;;;;;;;;;;9.75;54.56;96760.09;4193144;28;5914;-71
2023/12/06 12:49:06;;;;;;;;;;;;;;;9.76;54.48;96761.72;4193984;28;5710;-71
2023/12/06 12:51:12;;;;;;;;;;;;;;;9.78;54.68;96757.06;4193048;28;5786;-72
2023/12/06 12:53:14;;;;;;;;;;;;;;;9.79;54.83;96763.97;4190405;28;5714;-72
2023/12/06 12:55:18;;;;;;;;;;;;;;;9.78;54.66;96757.06;4191757;28;5683;-73
2023/12/06 12:57:21;;;;;;;;;;;;;;;9.76;54.35;96756.44;4193027;28;5719;-72
2023/12/06 12:59:25;;;;;;;;;;;;;;;9.75;54.52;96760.91;4191789;28;6243;-72
2023/12/06 13:01:28;;;;;;;;;;;;;;;9.76;54.86;96756.44;4192061;28;5781;-72
2023/12/06 13:03:33;;;;;;;;;;;;;;;9.78;54.81;96757.06;4186523;28;5724;-72
2023/12/06 13:05:37;;;;;;;;;;;;;;;9.79;54.62;96753.41;4188109;28;5695;-72
2023/12/06 13:07:40;;;;;;;;;;;;;;;9.79;54.68;96751.59;4190199;28;5705;-72
2023/12/06 13:09:42;;;;;;;;;;;;;;;9.80;54.69;96755.84;4192920;28;5918;-72
2023/12/06 13:11:46;;;;;;;;;;;;;;;9.80;54.63;96747.94;4192730;28;5793;-72
2023/12/06 13:13:49;;;;;;;;;;;;;;;9.81;54.75;96749.56;4192951;28;5769;-71
2023/12/06 13:15:52;;;;;;;;;;;;;;;9.79;54.60;96748.94;4199958;28;5691;-72
2023/12/06 13:17:55;;;;;;;;;;;;;;;9.79;54.47;96753.41;4193019;28;5701;-72
2023/12/06 13:19:59;;;;;;;;;;;;;;;9.78;54.60;96747.31;4199950;28;5759;-71
2023/12/06 13:22:02;;;;;;;;;;;;;;;9.80;54.47;96755.03;4198290;28;5698;-72
2023/12/06 13:24:16;;;;;;;;;;;;;;;9.79;54.28;96754.22;4200513;28;5781;-72
2023/12/06 13:26:19;;;;;;;;;;;;;;;9.79;54.43;96756.06;4196891;28;5758;-72
2023/12/06 13:28:22;;;;;;;;;;;;;;;9.78;54.32;96752.59;4186841;28;5731;-71
2023/12/06 13:30:29;;;;;;;;;;;;;;;9.80;54.49;96750.56;4188061;28;5724;-71
2023/12/06 13:32:32;;;;;;;;;;;;;;;9.80;54.75;96755.84;4191761;28;5724;-72
2023/12/06 13:34:36;;;;;;;;;;;;;;;9.82;54.64;96756.47;4188619;28;5695;-72
2023/12/06 13:36:41;;;;;;;;;;;;;;;9.83;54.44;96760.75;4200157;28;5699;-72
2023/12/06 13:38:44;;;;;;;;;;;;;;;9.85;54.37;96764.03;4186144;28;5175;-73
2023/12/06 13:40:46;;;;;;;;;;;;;;;9.86;54.53;96768.31;4183571;28;7832;-72
2023/12/06 13:42:49;;;;;;;;;;;;;;;9.86;54.51;96767.50;4191942;28;5704;-72
2023/12/06 13:44:51;;;;;;;;;;;;;;;9.85;54.53;96774.59;4195787;28;5734;-72
2023/12/06 13:46:54;;;;;;;;;;;;;;;9.83;54.38;96771.31;4189089;28;5720;-72
2023/12/06 13:48:58;;;;;;;;;;;;;;;9.83;54.31;96776.59;4188988;28;5724;-72
2023/12/06 13:51:03;;;;;;;;;;;;;;;9.82;54.27;96774.97;4188744;28;6401;-72
2023/12/06 13:53:07;;;;;;;;;;;;;;;9.80;54.03;96769.06;4191706;28;5717;-72
2023/12/06 13:55:09;;;;;;;;;;;;;;;9.79;54.40;96774.53;4188834;28;5800;-72
2023/12/06 13:57:12;;;;;;;;;;;;;;;9.81;54.08;96769.88;4189525;28;5674;-72
2023/12/06 13:59:16;;;;;;;;;;;;;;;9.82;54.04;96780.25;4189021;28;5868;-72
2023/12/06 14:01:18;;;;;;;;;;;;;;;9.81;53.89;96773.31;4185272;28;5809;-71
2023/12/06 14:03:22;;;;;;;;;;;;;;;9.81;53.87;96778.59;4188520;28;5733;-71
2023/12/06 14:05:25;;;;;;;;;;;;;;;9.83;54.02;96778.41;4194308;28;5728;-72
2023/12/06 14:07:28;;;;;;;;;;;;;;;9.85;54.25;96779.88;4196699;28;5687;-72
2023/12/06 14:09:33;;;;;;;;;;;;;;;9.85;54.14;96777.25;4194173;28;5745;-72
2023/12/06 14:11:36;;;;;;;;;;;;;;;9.86;54.08;96781.50;4194202;28;5788;-72
2023/12/06 14:13:38;;;;;;;;;;;;;;;9.86;54.15;96784.16;4190185;28;5800;-72
2023/12/06 14:15:42;;;;;;;;;;;;;;;9.85;53.86;96793.09;4190860;28;5717;-72
2023/12/06 14:17:45;;;;;;;;;;;;;;;9.83;53.63;96792.44;4188214;28;5732;-73
2023/12/06 14:19:48;;;;;;;;;;;;;;;9.82;53.48;96796.09;4191962;28;5696;-72
2023/12/06 14:21:51;;;;;;;;;;;;;;;9.81;53.69;96804.19;4191524;28;5869;-72
2023/12/06 14:23:54;;;;;;;;;;;;;;;9.81;53.52;96794.44;4192821;28;5745;-72
2023/12/06 14:25:59;;;;;;;;;;;;;;;9.81;53.90;96791.81;4190254;28;5725;-72
2023/12/06 14:28:02;;;;;;;;;;;;;;;9.82;53.50;96796.09;4192172;28;5814;-72
2023/12/06 14:30:07;;;;;;;;;;;;;;;9.80;53.27;96792.81;4191274;28;5868;-71
2023/12/06 14:32:17;;;;;;;;;;;;;;;9.83;53.52;96796.91;4192509;28;5800;-72
2023/12/06 14:34:21;;;;;;;;;;;;;;;9.85;53.13;96806.28;4193022;28;5888;-72
2023/12/06 14:36:24;;;;;;;;;;;;;;;9.86;53.16;96815.84;4199867;28;5735;-72
2023/12/06 14:38:28;;;;;;;;;;;;;;;9.85;53.41;96803.66;4198557;28;5695;-72
2023/12/06 14:40:31;;;;;;;;;;;;;;;9.85;52.92;96810.72;4201972;28;5797;-72
2023/12/06 14:42:35;;;;;;;;;;;;;;;9.84;53.17;96817.84;4202416;28;5699;-72
2023/12/06 14:44:38;;;;;;;;;;;;;;;9.84;53.02;96814.38;4202443;28;5758;-72
2023/12/06 14:46:41;;;;;;;;;;;;;;;9.81;52.83;96810.28;4194327;28;5683;-72
2023/12/06 14:48:44;;;;;;;;;;;;;;;9.83;52.93;96818.84;4194153;28;6079;-72
2023/12/06 14:50:48;;;;;;;;;;;;;;;9.84;52.88;96825.75;4200225;28;6560;-72
2023/12/06 14:52:51;;;;;;;;;;;;;;;9.83;52.77;96826.75;4202621;28;5694;-71
2023/12/06 14:54:54;;;;;;;;;;;;;;;9.82;52.94;96825.13;4194541;28;5688;-71
2023/12/06 14:56:57;;;;;;;;;;;;;;;9.82;52.79;96827.75;4194029;28;5675;-72
2023/12/06 14:59:02;;;;;;;;;;;;;;;9.82;52.86;96830.41;4193274;28;5709;-71
2023/12/06 15:01:05;;;;;;;;;;;;;;;9.81;52.65;96836.69;4196851;28;5793;-72
2023/12/06 15:03:08;;;;;;;;;;;;;;;9.81;52.80;96834.06;4194141;28;6413;-72
2023/12/06 15:05:12;;;;;;;;;;;;;;;9.81;52.63;96836.69;4194176;28;5716;-72
2023/12/06 15:07:14;;;;;;;;;;;;;;;9.81;52.56;96849.06;4194094;28;5810;-73
2023/12/06 15:09:17;;;;;;;;;;;;;;;9.82;52.43;96851.53;4200245;28;5702;-72
2023/12/06 15:11:19;;;;;;;;;;;;;;;9.84;52.52;96846.06;4194395;28;5865;-73
2023/12/06 15:13:22;;;;;;;;;;;;;;;9.84;52.83;96840.78;4201831;28;5694;-66
2023/12/06 15:15:27;;;;;;;;;;;;;;;9.82;52.64;96840.97;4192780;28;5714;-79
2023/12/06 15:17:31;;;;;;;;;;;;;;;9.82;52.88;96846.25;4195430;28;5834;-77
2023/12/06 15:19:34;;;;;;;;;;;;;;;9.82;52.56;96848.06;4188051;28;5821;-72
2023/12/06 15:21:44;;;;;;;;;;;;;;;9.82;52.85;96851.53;4195373;28;5886;-76
2023/12/06 15:23:47;;;;;;;;;;;;;;;9.81;52.75;96851.72;4196618;28;5683;-72
2023/12/06 15:25:50;;;;;;;;;;;;;;;9.79;52.62;96859.84;4199233;28;5853;-72
2023/12/06 15:27:53;;;;;;;;;;;;;;;9.78;52.40;96863.47;4199307;28;5865;-72
2023/12/06 15:29:57;;;;;;;;;;;;;;;9.77;52.33;96859.22;4192537;28;5675;-67
2023/12/06 15:32:01;;;;;;;;;;;;;;;9.75;52.40;96863.03;4194084;28;5793;-74
2023/12/06 15:34:04;;;;;;;;;;;;;;;9.74;52.56;96862.22;4196711;28;5687;-74
2023/12/06 15:36:09;;;;;;;;;;;;;;;9.74;52.31;96864.88;4190345;28;5766;-76
2023/12/06 15:38:12;;;;;;;;;;;;;;;9.72;52.72;96874.78;4191078;28;5697;-71
2023/12/06 15:40:16;;;;;;;;;;;;;;;9.72;52.44;96866.84;4197737;28;5801;-69
2023/12/06 15:42:18;;;;;;;;;;;;;;;9.71;52.57;96873.13;4193482;28;5691;-75
2023/12/06 15:44:21;;;;;;;;;;;;;;;9.70;52.54;96871.50;4195067;28;5930;-72
2023/12/06 15:46:27;;;;;;;;;;;;;;;9.69;52.41;96877.78;4192042;28;5686;-74
2023/12/06 15:48:33;;;;;;;;;;;;;;;9.66;52.48;96872.06;4189166;28;5872;-72
2023/12/06 15:50:36;;;;;;;;;;;;;;;9.67;52.24;96877.16;4200190;28;5707;-73
2023/12/06 15:52:39;;;;;;;;;;;;;;;9.66;52.29;96883.44;4190486;28;5801;-73
2023/12/06 15:54:41;;;;;;;;;;;;;;;9.66;52.58;96886.09;4195538;28;6233;-71
2023/12/06 15:56:44;;;;;;;;;;;;;;;9.65;52.47;96884.44;4191291;28;5901;-70
2023/12/06 15:58:46;;;;;;;;;;;;;;;9.65;52.28;96886.28;4184770;28;5720;-75
2023/12/06 16:00:57;;;;;;;;;;;;;;;9.65;52.29;96883.63;4197389;28;5707;-71
2023/12/06 16:03:00;;;;;;;;;;;;;;;9.63;52.44;96881.19;4194849;28;5094;-77
2023/12/06 16:05:09;;;;;;;;;;;;;;;9.62;52.23;96884.78;4195494;28;7687;-75
2023/12/06 16:07:12;;;;;;;;;;;;;;;9.60;52.14;96882.34;4196273;28;5699;-77
2023/12/06 16:09:15;;;;;;;;;;;;;;;9.61;52.02;96885.81;4199209;28;5833;-78
2023/12/06 16:11:18;;;;;;;;;;;;;;;9.58;52.04;96887.00;4195738;28;5686;-78
2023/12/06 16:13:21;;;;;;;;;;;;;;;9.58;52.34;96891.47;4188036;28;6287;-77
2023/12/06 16:15:25;;;;;;;;;;;;;;;9.56;52.31;96896.94;4193277;28;5706;-70
2023/12/06 16:17:28;;;;;;;;;;;;;;;9.57;52.33;96897.75;4192021;28;5770;-69
2023/12/06 16:19:32;;;;;;;;;;;;;;;9.55;52.45;96895.28;4188076;28;5704;-70
2023/12/06 16:21:35;;;;;;;;;;;;;;;9.54;52.26;96898.13;4191614;28;6669;-71
2023/12/06 16:23:41;;;;;;;;;;;;;;;9.54;52.36;96898.13;4191242;28;5784;-72
2023/12/06 16:25:45;;;;;;;;;;;;;;;9.53;52.56;96897.31;4192794;28;5683;-68
2023/12/06 16:27:48;;;;;;;;;;;;;;;9.54;52.38;96898.94;4188187;28;5712;-69
2023/12/06 16:29:55;;;;;;;;;;;;;;;9.54;52.38;96898.13;4192406;28;5675;-73
2023/12/06 16:31:59;;;;;;;;;;;;;;;9.54;52.08;96898.13;4200991;28;5815;-74
2023/12/06 16:34:02;;;;;;;;;;;;;;;9.54;52.32;96898.94;4193520;28;5810;-74
2023/12/06 16:36:06;;;;;;;;;;;;;;;9.53;52.56;96902.56;4192076;28;5883;-79
2023/12/06 16:38:11;;;;;;;;;;;;;;;9.50;52.14;96902.91;4192326;28;5743;-69
2023/12/06 16:40:14;;;;;;;;;;;;;;;9.52;52.10;96908.88;4190724;28;5680;-70
2023/12/06 16:42:18;;;;;;;;;;;;;;;9.53;52.55;96917.59;4188617;28;5716;-71
2023/12/06 16:44:21;;;;;;;;;;;;;;;9.53;52.20;96912.31;4195640;28;5708;-69
2023/12/06 16:46:24;;;;;;;;;;;;;;;9.53;52.08;96912.31;4194035;28;5846;-69
2023/12/06 16:48:28;;;;;;;;;;;;;;;9.52;52.20;96918.59;4191696;28;5708;-68
2023/12/06 16:50:33;;;;;;;;;;;;;;;9.50;52.29;96928.50;4189667;28;5694;-72
2023/12/06 16:52:36;;;;;;;;;;;;;;;9.51;52.46;96936.25;4196601;28;5810;-75
2023/12/06 16:54:43;;;;;;;;;;;;;;;9.50;52.24;96934.59;4194834;28;5912;-73
2023/12/06 16:56:46;;;;;;;;;;;;;;;9.50;52.43;96934.59;4192453;28;6379;-69